createdAt,value
2022-10-16T00:01:34.920Z,5.97
2022-10-16T00:04:01.730Z,6.30
2022-10-16T00:06:28.795Z,6.70
2022-10-16T00:08:55.549Z,6.40
2022-10-16T00:11:29.785Z,6.00
2022-10-16T00:13:58.227Z,5.93
2022-10-16T00:16:24.824Z,5.50
2022-10-16T00:18:51.372Z,6.12
2022-10-16T00:21:19.902Z,6.07
2022-10-16T00:23:46.639Z,6.32
2022-10-16T00:26:14.849Z,6.43
2022-10-16T00:28:41.477Z,5.75
2022-10-16T00:31:11.879Z,6.85
2022-10-16T00:33:38.989Z,5.87
2022-10-16T00:36:05.696Z,6.53
2022-10-16T00:38:32.357Z,6.10
2022-10-16T00:40:58.880Z,6.43
2022-10-16T00:43:38.943Z,5.50
2022-10-16T00:46:26.599Z,5.80
2022-10-16T00:49:09.765Z,6.22
2022-10-16T00:51:41.247Z,6.00
2022-10-16T00:54:13.489Z,5.45
2022-10-16T00:56:40.022Z,6.62
2022-10-16T00:59:16.172Z,6.30
2022-10-16T01:01:42.695Z,6.07
2022-10-16T01:04:09.253Z,6.70
2022-10-16T01:06:41.499Z,5.93
2022-10-16T01:09:07.927Z,6.57
2022-10-16T01:11:56.769Z,6.18
2022-10-16T01:14:44.073Z,5.40
2022-10-16T01:17:21.522Z,5.62
2022-10-16T01:20:06.567Z,5.67
2022-10-16T01:23:00.203Z,6.00
2022-10-16T01:25:57.350Z,5.53
2022-10-16T01:28:26.667Z,5.90
2022-10-16T01:30:54.127Z,5.95
2022-10-16T01:33:22.755Z,6.00
2022-10-16T01:35:54.260Z,6.18
2022-10-16T01:38:35.882Z,6.12
2022-10-16T01:41:05.675Z,5.62
2022-10-16T01:43:38.239Z,5.62
2022-10-16T01:46:04.785Z,5.45
2022-10-16T01:48:31.309Z,5.85
2022-10-16T01:51:11.318Z,5.50
2022-10-16T01:53:38.200Z,6.60
2022-10-16T01:56:06.104Z,6.37
2022-10-16T01:58:35.656Z,5.40
2022-10-16T02:01:02.927Z,5.70
2022-10-16T02:03:29.575Z,5.35
2022-10-16T02:05:57.590Z,6.47
2022-10-16T02:08:24.736Z,5.87
2022-10-16T02:10:51.295Z,5.80
2022-10-16T02:13:46.201Z,5.93
2022-10-16T02:16:14.266Z,5.87
2022-10-16T02:18:41.248Z,5.80
2022-10-16T02:21:24.633Z,5.75
2022-10-16T02:24:04.480Z,6.07
2022-10-16T02:26:39.561Z,5.95
2022-10-16T02:29:09.087Z,6.25
2022-10-16T02:31:36.823Z,5.80
2022-10-16T02:36:30.358Z,6.18
2022-10-16T02:38:56.877Z,5.93
2022-10-16T02:41:23.428Z,5.82
2022-10-16T02:43:50.522Z,6.50
2022-10-16T02:46:18.012Z,7.55
2022-10-16T02:48:44.565Z,6.30
2022-10-16T02:51:11.094Z,5.97
2022-10-16T02:53:37.643Z,6.15
2022-10-16T02:56:04.217Z,6.37
2022-10-16T02:58:30.769Z,5.68
2022-10-16T03:00:57.350Z,5.82
2022-10-16T03:03:23.911Z,5.55
2022-10-16T03:05:50.428Z,6.30
2022-10-16T03:08:17.238Z,6.28
2022-10-16T03:10:43.805Z,5.83
2022-10-16T03:13:10.335Z,6.00
2022-10-16T03:15:36.869Z,5.57
2022-10-16T03:18:03.386Z,5.80
2022-10-16T03:20:29.945Z,6.32
2022-10-16T03:22:56.458Z,6.40
2022-10-16T03:25:22.975Z,5.47
2022-10-16T03:27:49.508Z,6.05
2022-10-16T03:30:17.368Z,5.97
2022-10-16T03:32:45.327Z,5.78
2022-10-16T03:35:11.888Z,5.28
2022-10-16T03:37:38.448Z,5.65
2022-10-16T03:40:05.342Z,6.35
2022-10-16T03:42:31.890Z,6.33
2022-10-16T03:44:58.439Z,6.25
2022-10-16T03:47:25.283Z,6.20
2022-10-16T03:49:52.178Z,6.85
2022-10-16T03:54:50.338Z,6.40
2022-10-16T03:57:16.878Z,6.72
2022-10-16T03:59:43.443Z,6.95
2022-10-16T04:02:10.099Z,5.90
2022-10-16T04:04:36.635Z,5.43
2022-10-16T04:07:03.183Z,6.60
2022-10-16T04:09:29.716Z,5.53
2022-10-16T04:11:56.254Z,5.87
2022-10-16T04:14:22.782Z,6.32
2022-10-16T04:16:49.298Z,6.35
2022-10-16T04:19:15.867Z,5.90
2022-10-16T04:21:42.399Z,6.32
2022-10-16T04:24:08.938Z,6.00
2022-10-16T04:26:35.492Z,5.70
2022-10-16T04:29:02.126Z,6.45
2022-10-16T04:31:28.673Z,5.85
2022-10-16T04:33:55.201Z,5.90
2022-10-16T04:36:24.266Z,5.90
2022-10-16T04:38:53.369Z,5.87
2022-10-16T04:41:19.913Z,6.03
2022-10-16T04:43:46.497Z,6.05
2022-10-16T04:46:13.030Z,6.90
2022-10-16T04:48:39.570Z,6.43
2022-10-16T04:51:06.148Z,6.07
2022-10-16T04:53:32.708Z,5.87
2022-10-16T04:55:59.218Z,6.10
2022-10-16T04:58:25.753Z,7.30
2022-10-16T05:00:52.273Z,7.07
2022-10-16T05:03:18.942Z,7.75
2022-10-16T05:05:46.021Z,7.15
2022-10-16T05:08:16.098Z,7.12
2022-10-16T05:10:43.085Z,5.85
2022-10-16T05:13:09.605Z,7.72
2022-10-16T05:15:36.143Z,6.68
2022-10-16T05:18:02.695Z,6.75
2022-10-16T05:20:29.265Z,6.30
2022-10-16T05:22:55.786Z,7.28
2022-10-16T05:25:22.312Z,6.55
2022-10-16T05:27:49.610Z,6.85
2022-10-16T05:30:16.925Z,6.60
2022-10-16T05:32:47.528Z,6.35
2022-10-16T05:35:14.052Z,6.32
2022-10-16T05:37:40.576Z,6.18
2022-10-16T05:40:07.727Z,6.70
2022-10-16T05:42:34.280Z,6.68
2022-10-16T05:45:00.873Z,6.07
2022-10-16T05:47:27.966Z,6.03
2022-10-16T05:49:54.827Z,5.78
2022-10-16T05:52:21.351Z,6.78
2022-10-16T05:54:47.884Z,6.40
2022-10-16T05:57:14.409Z,6.50
2022-10-16T05:59:41.034Z,6.70
2022-10-16T06:02:09.891Z,6.47
2022-10-16T06:04:36.405Z,6.37
2022-10-16T06:07:02.941Z,6.78
2022-10-16T06:09:29.479Z,6.37
2022-10-16T06:11:56.053Z,7.18
2022-10-16T06:14:22.612Z,7.15
2022-10-16T06:16:49.161Z,6.32
2022-10-16T06:19:17.245Z,6.47
2022-10-16T06:21:43.812Z,6.85
2022-10-16T06:24:10.606Z,7.40
2022-10-16T06:26:37.135Z,6.62
2022-10-16T06:29:03.785Z,6.97
2022-10-16T06:31:32.103Z,6.23
2022-10-16T06:33:58.893Z,6.60
2022-10-16T06:36:25.992Z,6.90
2022-10-16T06:38:52.548Z,6.70
2022-10-16T06:41:20.783Z,6.10
2022-10-16T06:43:47.697Z,6.25
2022-10-16T06:46:15.618Z,6.45
2022-10-16T06:48:42.267Z,6.32
2022-10-16T06:51:16.831Z,6.23
2022-10-16T06:54:01.858Z,5.53
2022-10-16T06:56:32.058Z,6.55
2022-10-16T06:58:58.890Z,6.53
2022-10-16T07:01:25.609Z,6.30
2022-10-16T07:03:52.432Z,5.93
2022-10-16T07:06:20.391Z,6.87
2022-10-16T07:08:47.234Z,6.80
2022-10-16T07:11:15.204Z,7.82
2022-10-16T07:13:42.465Z,6.62
2022-10-16T07:16:19.602Z,6.72
2022-10-16T07:18:47.422Z,6.35
2022-10-16T07:21:15.493Z,6.40
2022-10-16T07:23:42.165Z,6.72
2022-10-16T07:26:08.835Z,7.70
2022-10-16T07:28:35.918Z,6.15
2022-10-16T07:31:07.866Z,6.68
2022-10-16T07:33:35.172Z,6.07
2022-10-16T07:36:01.711Z,6.22
2022-10-16T07:38:28.822Z,7.10
2022-10-16T07:40:59.172Z,7.20
2022-10-16T07:43:26.511Z,6.20
2022-10-16T07:48:24.694Z,6.45
2022-10-16T07:50:51.243Z,7.15
2022-10-16T07:53:17.777Z,6.80
2022-10-16T07:55:44.336Z,7.17
2022-10-16T07:58:10.905Z,6.53
2022-10-16T08:00:38.006Z,6.40
2022-10-16T08:03:04.706Z,6.60
2022-10-16T08:05:32.128Z,6.72
2022-10-16T08:10:26.503Z,7.28
2022-10-16T08:12:53.379Z,7.25
2022-10-16T08:15:20.314Z,7.43
2022-10-16T08:18:07.110Z,7.00
2022-10-16T08:20:33.724Z,6.60
2022-10-16T08:23:01.159Z,7.53
2022-10-16T08:27:54.075Z,7.50
2022-10-16T08:30:22.943Z,6.80
2022-10-16T08:32:49.800Z,6.40
2022-10-16T08:35:16.771Z,6.97
2022-10-16T08:37:43.442Z,6.85
2022-10-16T08:40:35.411Z,6.95
2022-10-16T08:43:21.952Z,6.90
2022-10-16T08:46:01.336Z,7.30
2022-10-16T08:48:31.363Z,6.87
2022-10-16T08:50:57.943Z,6.90
2022-10-16T08:53:30.339Z,6.80
2022-10-16T08:55:56.909Z,7.32
2022-10-16T08:58:24.587Z,7.50
2022-10-16T09:00:56.842Z,7.00
2022-10-16T09:03:44.609Z,7.37
2022-10-16T09:06:24.758Z,6.50
2022-10-16T09:09:12.743Z,7.00
2022-10-16T09:11:42.170Z,6.60
2022-10-16T09:14:27.376Z,6.72
2022-10-16T09:16:59.860Z,8.57
2022-10-16T09:19:35.527Z,8.02
2022-10-16T09:22:03.786Z,7.57
2022-10-16T09:24:30.668Z,7.05
2022-10-16T09:26:57.237Z,8.13
2022-10-16T09:29:26.238Z,7.53
2022-10-16T09:31:53.727Z,6.87
2022-10-16T09:34:33.449Z,7.32
2022-10-16T09:37:00.185Z,7.80
2022-10-16T09:39:26.716Z,7.70
2022-10-16T09:41:53.300Z,6.82
2022-10-16T09:44:26.952Z,7.57
2022-10-16T09:47:26.836Z,7.20
2022-10-16T09:49:58.848Z,6.80
2022-10-16T09:52:25.565Z,8.75
2022-10-16T09:54:56.640Z,7.70
2022-10-16T09:57:23.294Z,7.15
2022-10-16T09:59:51.329Z,7.17
2022-10-16T10:02:19.596Z,7.85
2022-10-16T10:04:50.363Z,7.07
2022-10-16T10:07:29.340Z,7.25
2022-10-16T10:09:56.837Z,7.28
2022-10-16T10:12:27.396Z,7.75
2022-10-16T10:14:57.921Z,7.40
2022-10-16T10:17:25.639Z,7.57
2022-10-16T10:20:01.676Z,7.12
2022-10-16T10:22:40.070Z,7.03
2022-10-16T10:25:09.939Z,6.55
2022-10-16T10:28:13.457Z,7.10
2022-10-16T10:31:01.728Z,7.85
2022-10-16T10:33:52.352Z,5.87
2022-10-16T10:36:37.765Z,7.07
2022-10-16T10:39:13.865Z,6.28
2022-10-16T10:42:07.385Z,7.05
2022-10-16T10:44:52.520Z,6.95
2022-10-16T10:47:39.504Z,5.78
2022-10-16T10:50:18.035Z,5.80
2022-10-16T10:52:51.292Z,6.90
2022-10-16T10:55:55.054Z,7.45
2022-10-16T10:58:32.343Z,5.60
2022-10-16T11:01:19.082Z,6.20
2022-10-16T11:04:10.380Z,5.97
2022-10-16T11:06:40.855Z,6.82
2022-10-16T11:09:32.883Z,5.95
2022-10-16T11:12:08.257Z,5.75
2022-10-16T11:14:50.665Z,5.12
2022-10-16T11:17:27.220Z,5.78
2022-10-16T11:20:00.550Z,4.85
2022-10-16T11:22:33.462Z,5.22
2022-10-16T11:25:09.792Z,5.70
2022-10-16T11:27:40.220Z,4.47
2022-10-16T11:30:28.833Z,5.40
2022-10-16T11:32:55.206Z,5.07
2022-10-16T11:35:31.001Z,5.45
2022-10-16T11:37:57.538Z,5.50
2022-10-16T11:40:30.060Z,5.30
2022-10-16T11:43:03.767Z,4.68
2022-10-16T11:45:56.841Z,4.97
2022-10-16T11:48:49.611Z,5.20
2022-10-16T11:51:38.151Z,5.07
2022-10-16T11:54:23.310Z,4.70
2022-10-16T11:56:51.638Z,4.40
2022-10-16T11:59:29.674Z,5.05
2022-10-16T12:02:04.845Z,4.57
2022-10-16T12:04:35.459Z,4.93
2022-10-16T12:07:07.702Z,5.60
2022-10-16T12:09:36.014Z,4.72
2022-10-16T12:12:02.568Z,5.57
2022-10-16T12:17:36.229Z,4.60
2022-10-16T12:20:28.408Z,5.03
2022-10-16T12:23:00.086Z,4.68
2022-10-16T12:25:34.277Z,4.85
2022-10-16T12:28:02.544Z,5.35
2022-10-16T12:30:33.596Z,5.03
2022-10-16T12:33:07.426Z,4.68
2022-10-16T12:35:35.813Z,4.68
2022-10-16T12:38:19.163Z,4.93
2022-10-16T12:40:46.241Z,5.35
2022-10-16T12:43:26.040Z,4.18
2022-10-16T12:46:10.833Z,4.90
2022-10-16T12:48:49.488Z,4.22
2022-10-16T12:51:31.825Z,4.40
2022-10-16T12:54:24.243Z,4.12
2022-10-16T12:57:08.032Z,4.75
2022-10-16T12:59:53.240Z,4.25
2022-10-16T13:02:44.674Z,4.93
2022-10-16T13:05:23.348Z,3.90
2022-10-16T13:07:49.747Z,3.85
2022-10-16T13:10:25.302Z,4.18
2022-10-16T13:13:22.020Z,6.90
2022-10-16T13:15:57.537Z,4.45
2022-10-16T13:18:47.424Z,3.95
2022-10-16T13:21:38.854Z,3.90
2022-10-16T13:24:28.033Z,4.72
2022-10-16T13:27:12.788Z,4.37
2022-10-16T13:29:42.201Z,4.47
2022-10-16T13:32:10.450Z,4.05
2022-10-16T13:34:45.233Z,4.15
2022-10-16T13:37:21.727Z,4.50
2022-10-16T13:39:48.311Z,3.95
2022-10-16T13:42:17.274Z,3.87
2022-10-16T13:44:44.919Z,3.50
2022-10-16T13:47:16.718Z,4.60
2022-10-16T13:49:43.274Z,4.10
2022-10-16T13:52:22.125Z,5.03
2022-10-16T13:54:48.756Z,3.92
2022-10-16T13:57:26.648Z,4.33
2022-10-16T13:59:53.783Z,3.60
2022-10-16T14:02:27.757Z,3.72
2022-10-16T14:04:54.738Z,4.28
2022-10-16T14:07:24.949Z,3.70
2022-10-16T14:09:51.781Z,4.20
2022-10-16T14:12:18.352Z,3.83
2022-10-16T14:14:47.271Z,4.63
2022-10-16T14:17:19.191Z,4.07
2022-10-16T14:19:52.943Z,4.22
2022-10-16T14:22:41.195Z,4.30
2022-10-16T14:25:20.114Z,4.40
2022-10-16T14:27:46.933Z,4.12
2022-10-16T14:30:17.119Z,3.97
2022-10-16T14:32:53.350Z,4.37
2022-10-16T14:35:33.235Z,3.58
2022-10-16T14:38:00.874Z,3.80
2022-10-16T14:40:29.681Z,4.05
2022-10-16T14:42:56.240Z,3.90
2022-10-16T14:45:24.547Z,3.73
2022-10-16T14:47:53.466Z,3.22
2022-10-16T14:50:20.057Z,4.05
2022-10-16T14:52:46.636Z,4.20
2022-10-16T14:55:13.412Z,4.40
2022-10-16T14:57:39.999Z,4.60
2022-10-16T15:00:23.006Z,4.10
2022-10-16T15:02:50.165Z,4.68
2022-10-16T15:05:25.611Z,4.43
2022-10-16T15:07:53.578Z,4.10
2022-10-16T15:10:25.452Z,3.90
2022-10-16T15:12:52.218Z,4.12
2022-10-16T15:15:24.563Z,4.50
2022-10-16T15:17:56.934Z,4.70
2022-10-16T15:20:34.990Z,5.30
2022-10-16T15:23:13.766Z,4.10
2022-10-16T15:25:43.559Z,4.70
2022-10-16T15:28:10.322Z,4.40
2022-10-16T15:30:37.192Z,4.75
2022-10-16T15:33:04.357Z,5.10
2022-10-16T15:35:31.015Z,5.87
2022-10-16T15:37:57.963Z,4.37
2022-10-16T15:40:24.535Z,4.57
2022-10-16T15:42:51.124Z,6.82
2022-10-16T15:45:18.493Z,4.70
2022-10-16T15:47:45.920Z,4.85
2022-10-16T15:52:40.305Z,5.32
2022-10-16T15:55:10.639Z,5.37
2022-10-16T15:57:39.206Z,4.57
2022-10-16T16:00:11.347Z,5.57
2022-10-16T16:02:38.000Z,6.25
2022-10-16T16:05:05.555Z,5.10
2022-10-16T16:07:36.247Z,5.55
2022-10-16T16:10:03.305Z,4.57
2022-10-16T16:12:30.166Z,5.43
2022-10-16T16:14:57.638Z,6.20
2022-10-16T16:17:25.619Z,5.62
2022-10-16T16:19:52.303Z,4.70
2022-10-16T16:22:18.970Z,5.40
2022-10-16T16:24:45.507Z,5.57
2022-10-16T16:27:12.181Z,6.68
2022-10-16T16:29:38.725Z,6.90
2022-10-16T16:32:05.277Z,6.05
2022-10-16T16:34:31.977Z,6.18
2022-10-16T16:36:58.581Z,6.23
2022-10-16T16:39:25.127Z,5.78
2022-10-16T16:41:51.795Z,6.90
2022-10-16T16:44:18.356Z,6.93
2022-10-16T16:46:45.177Z,7.37
2022-10-16T16:49:12.675Z,6.55
2022-10-16T16:54:08.432Z,5.95
2022-10-16T16:56:35.231Z,6.20
2022-10-16T16:59:01.780Z,6.35
2022-10-16T17:01:28.544Z,6.53
2022-10-16T17:03:56.487Z,6.47
2022-10-16T17:06:27.627Z,7.07
2022-10-16T17:08:54.316Z,5.75
2022-10-16T17:11:22.634Z,6.17
2022-10-16T17:13:52.483Z,6.93
2022-10-16T17:16:23.437Z,6.75
2022-10-16T17:18:50.018Z,7.05
2022-10-16T17:21:16.657Z,7.20
2022-10-16T17:23:43.268Z,6.78
2022-10-16T17:26:12.740Z,7.25
2022-10-16T17:28:39.466Z,7.25
2022-10-16T17:31:13.987Z,6.80
2022-10-16T17:33:40.649Z,7.20
2022-10-16T17:36:07.383Z,7.82
2022-10-16T17:38:34.070Z,6.57
2022-10-16T17:41:15.797Z,7.53
2022-10-16T17:43:42.448Z,7.28
2022-10-16T17:46:09.298Z,8.00
2022-10-16T17:48:39.783Z,7.72
2022-10-16T17:51:07.872Z,8.10
2022-10-16T17:53:34.857Z,6.62
2022-10-16T17:56:08.857Z,7.00
2022-10-16T17:58:35.457Z,6.20
2022-10-16T18:01:02.160Z,6.60
2022-10-16T18:03:28.820Z,6.73
2022-10-16T18:05:55.762Z,6.12
2022-10-16T18:08:25.040Z,6.75
2022-10-16T18:10:54.597Z,6.57
2022-10-16T18:13:21.151Z,6.75
2022-10-16T18:15:47.696Z,6.95
2022-10-16T18:18:14.464Z,6.90
2022-10-16T18:20:40.997Z,6.93
2022-10-16T18:23:07.584Z,7.28
2022-10-16T18:25:34.160Z,7.10
2022-10-16T18:28:00.736Z,6.15
2022-10-16T18:30:27.316Z,6.85
2022-10-16T18:32:53.907Z,6.85
2022-10-16T18:35:20.514Z,6.68
2022-10-16T18:37:47.087Z,7.00
2022-10-16T18:40:13.686Z,7.05
2022-10-16T18:42:40.272Z,7.82
2022-10-16T18:45:07.368Z,7.47
2022-10-16T18:47:33.912Z,7.62
2022-10-16T18:50:00.440Z,7.93
2022-10-16T18:52:27.179Z,7.50
2022-10-16T18:54:56.585Z,7.20
2022-10-16T18:57:23.123Z,7.62
2022-10-16T18:59:49.665Z,7.90
2022-10-16T19:02:16.220Z,7.87
2022-10-16T19:04:42.738Z,7.53
2022-10-16T19:07:09.360Z,7.78
2022-10-16T19:09:35.878Z,8.50
2022-10-16T19:12:03.123Z,8.88
2022-10-16T19:14:30.195Z,9.77
2022-10-16T19:16:56.737Z,9.18
2022-10-16T19:19:23.844Z,8.98
2022-10-16T19:21:56.051Z,9.13
2022-10-16T19:24:22.590Z,9.82
2022-10-16T19:26:49.159Z,11.02
2022-10-16T19:29:15.694Z,10.02
2022-10-16T19:31:42.295Z,9.70
2022-10-16T19:34:10.010Z,9.85
2022-10-16T19:39:08.158Z,10.40
2022-10-16T19:41:36.180Z,10.40
2022-10-16T19:44:03.232Z,12.43
2022-10-16T19:46:30.347Z,12.20
2022-10-16T19:49:00.530Z,11.43
2022-10-16T19:51:27.259Z,11.48
2022-10-16T19:53:58.651Z,11.50
2022-10-16T19:56:26.103Z,11.15
2022-10-16T19:58:52.739Z,11.30
2022-10-16T20:01:19.395Z,11.93
2022-10-16T20:03:46.861Z,13.25
2022-10-16T20:06:13.924Z,11.50
2022-10-16T20:08:41.296Z,12.48
2022-10-16T20:11:11.506Z,12.35
2022-10-16T20:13:41.418Z,11.75
2022-10-16T20:16:09.105Z,10.88
2022-10-16T20:18:35.681Z,10.87
2022-10-16T20:21:02.211Z,11.57
2022-10-16T20:23:28.887Z,10.48
2022-10-16T20:25:57.297Z,10.60
2022-10-16T20:28:25.826Z,10.35
2022-10-16T20:30:52.386Z,10.43
2022-10-16T20:33:19.026Z,10.85
2022-10-16T20:35:47.191Z,10.38
2022-10-16T20:38:14.558Z,11.30
2022-10-16T20:40:42.767Z,9.88
2022-10-16T20:43:13.350Z,9.75
2022-10-16T20:45:40.060Z,9.50
2022-10-16T20:48:06.997Z,9.45
2022-10-16T20:50:33.669Z,9.23
2022-10-16T20:53:00.275Z,10.18
2022-10-16T20:55:27.239Z,9.70
2022-10-16T20:57:53.978Z,10.32
2022-10-16T21:00:20.584Z,10.05
2022-10-16T21:02:50.319Z,9.95
2022-10-16T21:05:17.048Z,10.10
2022-10-16T21:07:43.648Z,10.23
2022-10-16T21:10:10.380Z,10.15
2022-10-16T21:12:36.917Z,9.95
2022-10-16T21:15:14.859Z,10.13
2022-10-16T21:17:42.063Z,10.00
2022-10-16T21:20:08.835Z,10.75
2022-10-16T21:22:35.376Z,11.10
2022-10-16T21:25:01.887Z,10.70
2022-10-16T21:27:28.400Z,11.63
2022-10-16T21:29:54.951Z,11.73
2022-10-16T21:32:21.519Z,10.93
2022-10-16T21:34:48.295Z,10.93
2022-10-16T21:37:14.857Z,11.93
2022-10-16T21:39:41.431Z,11.75
2022-10-16T21:42:08.017Z,12.55
2022-10-16T21:44:34.558Z,12.15
2022-10-16T21:47:01.090Z,12.13
2022-10-16T21:49:27.798Z,12.55
2022-10-16T21:51:54.338Z,12.25
2022-10-16T21:54:22.315Z,12.80
2022-10-16T21:56:48.847Z,12.30
2022-10-16T21:59:15.562Z,12.80
2022-10-16T22:01:42.237Z,12.43
2022-10-16T22:04:13.744Z,12.98
2022-10-16T22:06:40.436Z,12.13
2022-10-16T22:09:07.149Z,11.30
2022-10-16T22:11:38.824Z,13.60
2022-10-16T22:14:06.710Z,13.02
2022-10-16T22:16:33.380Z,12.60
2022-10-16T22:18:59.919Z,12.68
2022-10-16T22:21:28.222Z,12.48
2022-10-16T22:23:54.788Z,12.45
2022-10-16T22:26:21.332Z,13.65
2022-10-16T22:28:48.056Z,13.48
2022-10-16T22:31:14.845Z,12.73
2022-10-16T22:33:41.712Z,12.73
2022-10-16T22:36:09.183Z,12.57
2022-10-16T22:38:36.115Z,12.88
2022-10-16T22:41:07.168Z,12.70
2022-10-16T22:43:38.107Z,13.60
2022-10-16T22:46:05.610Z,13.48
2022-10-16T22:48:32.140Z,13.07
2022-10-16T22:50:58.667Z,13.45
2022-10-16T22:53:25.228Z,13.20
2022-10-16T22:55:51.906Z,12.93
2022-10-16T22:58:18.463Z,13.95
2022-10-16T23:00:45.079Z,13.35
2022-10-16T23:03:11.995Z,13.23
2022-10-16T23:05:39.511Z,12.57
2022-10-16T23:08:06.086Z,12.20
2022-10-16T23:10:33.599Z,12.77
2022-10-16T23:13:00.124Z,13.05
2022-10-16T23:15:26.663Z,12.98
2022-10-16T23:17:53.173Z,12.48
2022-10-16T23:20:19.734Z,12.98
2022-10-16T23:22:46.268Z,12.30
2022-10-16T23:25:13.183Z,13.37
2022-10-16T23:27:39.716Z,13.60
2022-10-16T23:30:06.937Z,12.60
2022-10-16T23:32:33.984Z,12.90
2022-10-16T23:35:00.636Z,12.82
2022-10-16T23:37:27.204Z,13.40
2022-10-16T23:39:56.585Z,13.27
2022-10-16T23:42:23.126Z,13.40
2022-10-16T23:44:49.646Z,13.20
2022-10-16T23:47:16.210Z,13.38
2022-10-16T23:49:42.723Z,13.40
2022-10-16T23:52:09.260Z,13.25
2022-10-16T23:54:35.778Z,12.73
2022-10-16T23:57:02.315Z,12.40
2022-10-16T23:59:28.847Z,13.57
